Time;durP1;ratioP1;P1;durP2;ratioP2;P2;SDS_P1;SDS_P2;PMS_P1;PMS_P2;Temp;Humidity;BMP_temperature;BMP_pressure;BME280_temperature;BME280_humidity;BME280_pressure;Samples;Min_cycle;Max_cycle;Signal;HPM_P1;HPM_P2
2021/08/23 00:01:59;;;;;;;6.60;3.53;;;16.60;97.30;;;;;;4938719;29;20191;-86
2021/08/23 00:04:24;;;;;;;10.10;4.13;;;16.60;97.30;;;;;;4938187;29;20262;-86
2021/08/23 00:06:51;;;;;;;5.90;3.70;;;16.60;97.30;;;;;;4938348;29;20592;-86
2021/08/23 00:09:19;;;;;;;10.40;3.90;;;16.50;97.30;;;;;;4955748;29;20184;-85
2021/08/23 00:11:45;;;;;;;9.47;4.00;;;16.50;97.30;;;;;;4956035;29;20467;-85
2021/08/23 00:14:11;;;;;;;10.10;4.37;;;16.60;97.30;;;;;;4939275;29;20413;-86
2021/08/23 00:16:36;;;;;;;5.03;3.90;;;16.60;97.30;;;;;;4955188;28;20233;-86
2021/08/23 00:19:02;;;;;;;7.40;3.67;;;16.60;97.30;;;;;;4938462;29;20175;-86
2021/08/23 00:21:28;;;;;;;6.87;3.93;;;16.60;97.30;;;;;;4940100;29;20194;-85
2021/08/23 00:24:05;;;;;;;5.73;3.70;;;16.60;97.30;;;;;;4957521;28;20191;-85
2021/08/23 00:26:31;;;;;;;9.03;4.00;;;16.50;97.30;;;;;;4939557;29;20881;-85
2021/08/23 00:28:57;;;;;;;8.00;3.87;;;16.60;97.30;;;;;;4939559;29;20506;-85
2021/08/23 00:31:22;;;;;;;5.57;3.80;;;16.60;97.30;;;;;;4938146;29;20573;-86
2021/08/23 00:33:48;;;;;;;33.03;4.50;;;16.50;97.30;;;;;;4955698;28;20239;-86
2021/08/23 00:36:14;;;;;;;7.03;4.40;;;16.50;97.30;;;;;;4938407;29;20250;-87
2021/08/23 00:38:39;;;;;;;4.53;2.60;;;16.50;97.30;;;;;;4937882;29;20654;-86
2021/08/23 00:41:05;;;;;;;5.63;2.60;;;16.50;97.30;;;;;;4938136;29;20381;-85
2021/08/23 00:43:31;;;;;;;4.00;2.10;;;16.50;97.30;;;;;;4937935;29;20187;-85
2021/08/23 00:45:57;;;;;;;4.97;2.67;;;16.50;97.30;;;;;;4938275;29;20253;-86
2021/08/23 00:48:23;;;;;;;1.93;1.77;;;16.50;97.30;;;;;;4955309;29;20427;-85
2021/08/23 00:50:49;;;;;;;3.37;2.43;;;16.40;97.30;;;;;;4938819;29;20703;-86
2021/08/23 00:53:15;;;;;;;3.80;2.30;;;16.40;97.30;;;;;;4939235;29;20560;-86
2021/08/23 00:55:41;;;;;;;4.60;2.63;;;16.40;97.30;;;;;;4939730;29;20247;-85
2021/08/23 00:58:07;;;;;;;2.63;1.87;;;16.40;97.30;;;;;;4939715;29;20419;-86
2021/08/23 01:00:36;;;;;;;5.20;2.60;;;16.50;97.30;;;;;;4939793;29;20453;-87
2021/08/23 01:03:12;;;;;;;6.03;2.53;;;16.50;97.30;;;;;;4938692;29;20184;-85
2021/08/23 01:05:39;;;;;;;5.00;2.63;;;16.50;97.30;;;;;;4937805;29;20475;-86
2021/08/23 01:08:30;;;;;;;4.47;2.97;;;16.40;97.30;;;;;;4938297;29;20446;-85
2021/08/23 01:10:57;;;;;;;5.73;2.83;;;16.40;97.30;;;;;;4938066;29;20480;-87
2021/08/23 01:13:25;;;;;;;5.53;2.47;;;16.40;97.30;;;;;;4937791;29;20423;-87
2021/08/23 01:15:50;;;;;;;6.33;2.40;;;16.40;97.30;;;;;;4994255;23;20604;-85
2021/08/23 01:18:16;;;;;;;4.77;2.63;;;16.40;97.30;;;;;;4982746;28;20508;-85
2021/08/23 01:20:44;;;;;;;5.40;3.20;;;16.40;97.30;;;;;;4989730;28;20189;-86
2021/08/23 01:23:11;;;;;;;4.50;2.97;;;16.40;97.30;;;;;;4976428;28;20184;-86
2021/08/23 01:25:38;;;;;;;5.30;3.00;;;16.40;97.30;;;;;;4983071;28;20451;-86
2021/08/23 01:28:26;;;;;;;4.47;2.90;;;16.40;97.30;;;;;;5014916;28;20412;-86
2021/08/23 01:31:02;;;;;;;5.17;3.10;;;16.40;97.30;;;;;;4988276;28;20916;-85
2021/08/23 01:33:28;;;;;;;4.27;2.70;;;16.40;97.30;;;;;;4984206;28;20466;-85
2021/08/23 01:35:54;;;;;;;5.73;2.90;;;16.40;97.30;;;;;;4982949;28;20500;-86
2021/08/23 01:38:20;;;;;;;6.27;3.07;;;16.40;97.30;;;;;;4976285;28;20209;-86
2021/08/23 01:40:45;;;;;;;7.03;3.30;;;16.40;97.30;;;;;;4977172;28;20849;-86
2021/08/23 01:43:11;;;;;;;5.60;2.97;;;16.40;97.30;;;;;;4976202;28;20233;-86
2021/08/23 01:45:36;;;;;;;7.07;3.23;;;16.40;97.30;;;;;;4980174;28;20200;-86
2021/08/23 01:48:02;;;;;;;4.33;2.90;;;16.40;97.30;;;;;;4976436;28;20181;-86
2021/08/23 01:50:27;;;;;;;5.07;3.10;;;16.40;97.30;;;;;;4994378;28;20734;-86
2021/08/23 01:52:53;;;;;;;4.53;3.27;;;16.40;97.30;;;;;;4983449;28;20272;-86
2021/08/23 01:55:19;;;;;;;4.57;2.70;;;16.40;97.30;;;;;;4980598;28;20253;-86
2021/08/23 01:57:44;;;;;;;5.60;3.00;;;16.40;97.30;;;;;;4975888;28;20182;-87
2021/08/23 02:00:10;;;;;;;5.23;3.10;;;16.40;97.30;;;;;;4978192;28;20189;-88
2021/08/23 02:02:36;;;;;;;5.80;3.27;;;16.40;97.30;;;;;;4978157;28;20200;-86
2021/08/23 02:05:02;;;;;;;5.80;3.00;;;16.40;97.30;;;;;;4986128;28;20436;-86
2021/08/23 02:07:27;;;;;;;4.43;2.63;;;16.40;97.30;;;;;;5014034;28;20177;-85
2021/08/23 02:09:56;;;;;;;6.70;3.30;;;16.40;97.30;;;;;;4994314;28;20435;-85
2021/08/23 02:12:21;;;;;;;4.70;3.00;;;16.40;97.30;;;;;;4976258;28;20178;-85
2021/08/23 02:14:47;;;;;;;9.60;2.77;;;16.40;97.30;;;;;;4992864;28;20424;-85
2021/08/23 02:17:12;;;;;;;4.10;3.13;;;16.40;97.30;;;;;;4993847;28;20267;-86
2021/08/23 02:19:37;;;;;;;6.07;2.97;;;16.40;97.30;;;;;;4994450;28;20196;-85
2021/08/23 02:22:04;;;;;;;7.00;3.10;;;16.40;97.30;;;;;;4993860;28;20205;-85
2021/08/23 02:24:31;;;;;;;6.60;2.87;;;16.40;97.30;;;;;;4994498;28;20188;-85
2021/08/23 02:26:57;;;;;;;6.00;2.90;;;16.40;97.30;;;;;;4992879;28;20451;-85
2021/08/23 02:29:22;;;;;;;4.63;2.80;;;16.40;97.30;;;;;;4994473;28;20833;-86
2021/08/23 02:31:48;;;;;;;5.20;2.70;;;16.40;97.30;;;;;;4995782;28;20283;-85
2021/08/23 02:34:13;;;;;;;5.10;2.83;;;16.40;97.30;;;;;;4997921;28;20235;-86
2021/08/23 02:36:39;;;;;;;5.00;2.67;;;16.30;97.30;;;;;;4983944;28;20205;-86
2021/08/23 02:39:05;;;;;;;6.10;3.57;;;16.30;97.30;;;;;;4992171;28;20232;-86
2021/08/23 02:41:31;;;;;;;4.27;3.30;;;16.40;97.30;;;;;;4991440;28;20181;-86
2021/08/23 02:43:56;;;;;;;4.70;2.93;;;16.40;97.30;;;;;;5000252;28;20186;-88
2021/08/23 02:46:22;;;;;;;8.70;3.80;;;16.40;97.30;;;;;;4979009;28;20441;-87
2021/08/23 02:48:47;;;;;;;8.20;4.90;;;16.40;97.30;;;;;;4969585;28;20241;-86
2021/08/23 02:51:13;;;;;;;11.93;4.90;;;16.40;97.30;;;;;;4971935;28;20194;-87
2021/08/23 02:53:39;;;;;;;12.10;5.80;;;16.40;97.30;;;;;;4978500;28;20181;-86
2021/08/23 02:56:04;;;;;;;9.87;6.17;;;16.40;97.30;;;;;;4995371;28;20205;-86
2021/08/23 02:58:30;;;;;;;12.47;6.50;;;16.40;97.30;;;;;;4976440;28;20505;-87
2021/08/23 03:00:55;;;;;;;12.60;6.80;;;16.40;97.30;;;;;;4981186;28;20185;-87
2021/08/23 03:03:21;;;;;;;13.43;7.60;;;16.30;97.30;;;;;;4975666;28;20325;-87
2021/08/23 03:05:46;;;;;;;15.53;8.50;;;16.30;97.30;;;;;;4996322;28;20201;-87
2021/08/23 03:08:12;;;;;;;15.70;8.23;;;16.30;97.30;;;;;;4996244;28;20185;-88
2021/08/23 03:10:37;;;;;;;15.20;8.63;;;16.30;97.30;;;;;;5011697;28;20197;-87
2021/08/23 03:13:07;;;;;;;16.47;9.27;;;16.30;97.30;;;;;;4995933;28;20177;-86
2021/08/23 03:15:33;;;;;;;14.10;7.90;;;16.30;97.30;;;;;;4994298;28;20227;-87
2021/08/23 03:17:58;;;;;;;21.50;9.13;;;16.30;97.30;;;;;;4995428;28;20503;-86
2021/08/23 03:20:23;;;;;;;14.53;8.53;;;16.30;97.30;;;;;;4989296;28;20228;-88
2021/08/23 03:22:49;;;;;;;16.57;8.90;;;16.30;97.30;;;;;;4975685;28;20236;-87
2021/08/23 03:25:14;;;;;;;15.47;8.30;;;16.30;97.30;;;;;;4975315;28;20461;-87
2021/08/23 03:27:40;;;;;;;15.13;8.30;;;16.30;97.30;;;;;;4974699;28;20237;-86
2021/08/23 03:30:07;;;;;;;12.77;8.97;;;16.20;97.30;;;;;;4977692;28;20197;-87
2021/08/23 03:32:33;;;;;;;15.13;8.30;;;16.20;97.30;;;;;;4994526;28;20209;-87
2021/08/23 03:35:00;;;;;;;19.20;9.10;;;16.20;97.30;;;;;;5003768;28;20471;-87
2021/08/23 03:37:26;;;;;;;14.10;7.70;;;16.20;97.30;;;;;;4975464;28;20464;-87
2021/08/23 03:39:51;;;;;;;17.13;10.10;;;16.20;97.30;;;;;;4979912;28;20412;-86
2021/08/23 03:42:17;;;;;;;20.87;9.33;;;16.20;97.30;;;;;;4997160;28;20916;-87
2021/08/23 03:44:43;;;;;;;20.57;10.97;;;16.20;97.30;;;;;;4980004;28;20189;-87
2021/08/23 03:47:08;;;;;;;18.20;10.73;;;16.20;97.30;;;;;;4997586;28;20197;-86
2021/08/23 03:49:34;;;;;;;21.93;12.07;;;16.20;97.30;;;;;;4986262;28;20430;-87
2021/08/23 03:51:59;;;;;;;21.03;11.47;;;16.20;97.30;;;;;;4998046;28;20211;-86
2021/08/23 03:54:25;;;;;;;18.53;10.70;;;16.20;97.30;;;;;;4997656;28;20228;-87
2021/08/23 03:56:50;;;;;;;22.33;11.20;;;16.20;97.30;;;;;;4987268;28;20185;-86
2021/08/23 03:59:16;;;;;;;20.57;11.80;;;16.20;97.30;;;;;;4994922;28;20656;-87
2021/08/23 04:01:41;;;;;;;21.60;11.20;;;16.20;97.30;;;;;;4989863;28;20186;-86
2021/08/23 04:04:07;;;;;;;19.40;10.20;;;16.20;97.30;;;;;;4997809;28;20190;-87
2021/08/23 04:06:32;;;;;;;16.97;9.23;;;16.10;97.30;;;;;;5000838;28;20209;-87
2021/08/23 04:08:58;;;;;;;17.23;9.57;;;16.10;97.30;;;;;;4978428;28;20182;-87
2021/08/23 04:11:23;;;;;;;15.77;8.97;;;16.10;97.30;;;;;;5009702;28;20276;-88
2021/08/23 04:13:49;;;;;;;16.37;8.67;;;16.10;97.30;;;;;;4999502;28;20701;-86
2021/08/23 04:16:19;;;;;;;21.60;8.70;;;16.10;97.30;;;;;;4986811;28;20229;-87
2021/08/23 04:18:45;;;;;;;17.23;9.10;;;16.10;97.30;;;;;;4979509;28;20186;-87
2021/08/23 04:21:11;;;;;;;16.37;8.30;;;16.10;97.30;;;;;;4979031;28;20954;-87
2021/08/23 04:23:37;;;;;;;18.90;9.03;;;16.00;97.30;;;;;;4979012;28;20268;-87
2021/08/23 04:26:03;;;;;;;17.47;9.40;;;16.00;97.30;;;;;;4985543;28;20205;-86
2021/08/23 04:28:31;;;;;;;15.03;9.30;;;16.00;97.30;;;;;;4978364;28;20204;-86
2021/08/23 04:30:56;;;;;;;16.33;8.33;;;16.00;97.30;;;;;;4977598;28;20906;-87
2021/08/23 04:33:22;;;;;;;18.40;9.30;;;16.00;97.30;;;;;;4977424;28;20508;-86
2021/08/23 04:35:47;;;;;;;21.80;10.50;;;16.00;97.30;;;;;;4978662;28;20201;-86
2021/08/23 04:38:13;;;;;;;21.10;8.90;;;16.00;97.30;;;;;;4979424;28;20201;-86
2021/08/23 04:40:39;;;;;;;16.50;9.27;;;16.00;97.30;;;;;;4989889;28;20178;-86
2021/08/23 04:43:05;;;;;;;16.67;8.60;;;16.00;97.30;;;;;;4993430;28;20648;-86
2021/08/23 04:45:30;;;;;;;15.73;8.60;;;16.00;97.30;;;;;;4993491;28;20440;-86
2021/08/23 04:47:55;;;;;;;19.50;9.00;;;16.00;97.30;;;;;;4982562;28;20545;-85
2021/08/23 04:50:21;;;;;;;16.27;8.33;;;16.00;97.30;;;;;;5004881;28;20291;-86
2021/08/23 04:52:47;;;;;;;17.87;8.10;;;16.00;97.30;;;;;;4998514;28;20173;-86
2021/08/23 04:55:12;;;;;;;14.80;8.07;;;16.00;97.30;;;;;;4995472;28;20288;-85
2021/08/23 04:57:39;;;;;;;13.27;7.70;;;16.00;97.30;;;;;;4987214;28;20173;-86
2021/08/23 05:00:08;;;;;;;14.37;8.07;;;16.00;97.30;;;;;;4995811;28;20188;-86
2021/08/23 05:02:33;;;;;;;14.00;8.10;;;16.00;97.30;;;;;;4977849;28;20429;-86
2021/08/23 05:04:59;;;;;;;14.93;8.07;;;16.00;97.30;;;;;;4977988;28;20424;-86
2021/08/23 05:07:24;;;;;;;14.73;8.33;;;16.00;97.30;;;;;;4996276;28;20185;-85
2021/08/23 05:09:50;;;;;;;14.87;7.93;;;16.00;97.30;;;;;;4995813;28;20211;-86
2021/08/23 05:12:16;;;;;;;12.30;8.10;;;16.00;97.30;;;;;;4977197;28;20217;-86
2021/08/23 05:14:42;;;;;;;15.47;9.27;;;16.00;97.30;;;;;;4977522;28;20202;-85
2021/08/23 05:17:08;;;;;;;15.73;8.40;;;16.00;97.30;;;;;;4995309;28;20477;-86
2021/08/23 05:19:33;;;;;;;22.97;10.30;;;16.00;97.30;;;;;;4997891;28;20180;-87
2021/08/23 05:21:59;;;;;;;17.93;8.03;;;16.00;97.30;;;;;;4995928;28;20799;-86
2021/08/23 05:24:24;;;;;;;17.30;9.13;;;16.00;97.30;;;;;;4978863;28;20232;-85
2021/08/23 05:26:50;;;;;;;13.73;8.23;;;16.00;97.30;;;;;;5007994;28;20507;-86
2021/08/23 05:29:15;;;;;;;12.60;7.73;;;16.00;97.30;;;;;;4976982;28;20186;-85
2021/08/23 05:31:41;;;;;;;15.00;7.20;;;16.00;97.30;;;;;;4977358;28;20293;-87
2021/08/23 05:34:06;;;;;;;16.70;9.00;;;16.10;97.30;;;;;;4976789;28;20193;-86
2021/08/23 05:36:31;;;;;;;14.37;7.83;;;16.10;97.30;;;;;;4977772;28;20194;-86
2021/08/23 05:38:57;;;;;;;14.90;8.00;;;16.00;97.30;;;;;;4983051;28;20219;-86
2021/08/23 05:41:23;;;;;;;11.43;7.10;;;16.10;97.30;;;;;;4996445;28;20193;-86
2021/08/23 05:43:48;;;;;;;13.63;7.20;;;16.10;97.30;;;;;;4994374;28;20216;-86
2021/08/23 05:46:18;;;;;;;14.17;7.17;;;16.10;97.30;;;;;;4983981;28;20198;-85
2021/08/23 05:48:44;;;;;;;10.80;6.23;;;16.10;97.30;;;;;;4993712;28;20276;-86
2021/08/23 05:51:14;;;;;;;10.80;6.10;;;16.10;97.30;;;;;;4987076;28;20548;-85
2021/08/23 05:53:39;;;;;;;10.47;5.73;;;16.10;97.30;;;;;;5014331;28;20192;-86
2021/08/23 05:56:05;;;;;;;8.30;5.63;;;16.10;97.30;;;;;;4978625;28;20968;-86
2021/08/23 05:58:30;;;;;;;8.83;5.53;;;16.20;97.30;;;;;;4974542;28;20178;-86
2021/08/23 06:00:56;;;;;;;7.40;5.00;;;16.20;97.30;;;;;;5003716;28;20690;-86
2021/08/23 06:03:21;;;;;;;9.43;5.13;;;16.20;97.30;;;;;;4996895;28;20192;-86
2021/08/23 06:05:47;;;;;;;10.93;5.30;;;16.20;97.30;;;;;;4988600;28;20221;-86
2021/08/23 06:08:12;;;;;;;8.93;5.70;;;16.20;97.30;;;;;;4994803;28;20713;-85
2021/08/23 06:10:38;;;;;;;7.20;4.30;;;16.20;97.30;;;;;;5005780;28;20189;-87
2021/08/23 06:13:03;;;;;;;6.43;4.47;;;16.30;97.30;;;;;;4976608;28;20201;-86
2021/08/23 06:15:29;;;;;;;7.37;4.27;;;16.30;97.30;;;;;;4975316;28;20656;-86
2021/08/23 06:17:54;;;;;;;9.00;5.17;;;16.30;97.30;;;;;;4986111;28;20727;-87
2021/08/23 06:20:20;;;;;;;7.27;5.00;;;16.40;97.30;;;;;;4972967;28;20558;-86
2021/08/23 06:22:47;;;;;;;9.30;5.60;;;16.40;97.30;;;;;;4973745;28;20232;-86
2021/08/23 06:25:12;;;;;;;7.00;4.77;;;16.40;97.30;;;;;;4979339;28;20212;-86
2021/08/23 06:27:38;;;;;;;8.37;5.47;;;16.40;97.30;;;;;;4996624;28;20471;-87
2021/08/23 06:30:04;;;;;;;8.60;5.13;;;16.50;97.30;;;;;;4996231;28;20220;-86
2021/08/23 06:32:30;;;;;;;8.40;5.00;;;16.50;97.30;;;;;;5014989;28;20173;-87
2021/08/23 06:34:55;;;;;;;12.03;5.23;;;16.50;97.30;;;;;;4994625;28;20450;-86
2021/08/23 06:37:21;;;;;;;8.67;4.93;;;16.50;97.30;;;;;;4982204;28;20201;-86
2021/08/23 06:39:47;;;;;;;7.93;4.60;;;16.60;97.30;;;;;;4999527;28;20164;-86
2021/08/23 06:42:12;;;;;;;7.67;5.30;;;16.60;97.30;;;;;;5011425;28;20452;-86
2021/08/23 06:44:39;;;;;;;7.10;4.40;;;16.60;97.30;;;;;;5012642;28;20189;-85
2021/08/23 06:47:05;;;;;;;7.77;4.90;;;16.60;97.30;;;;;;5003665;28;20204;-85
2021/08/23 06:49:30;;;;;;;5.57;3.40;;;16.60;97.30;;;;;;4984221;28;20444;-86
2021/08/23 06:51:56;;;;;;;5.43;3.60;;;16.60;97.30;;;;;;4995112;28;20213;-86
2021/08/23 06:54:22;;;;;;;8.10;4.77;;;16.60;97.30;;;;;;4995684;28;20181;-86
2021/08/23 06:56:47;;;;;;;6.07;4.37;;;16.60;97.30;;;;;;4998130;28;20201;-87
2021/08/23 06:59:13;;;;;;;7.70;3.80;;;16.60;97.30;;;;;;4987101;28;20181;-86
2021/08/23 07:01:38;;;;;;;8.10;4.63;;;16.60;97.30;;;;;;4980568;28;20656;-86
2021/08/23 07:04:04;;;;;;;6.50;4.07;;;16.60;97.30;;;;;;4978691;28;20755;-86
2021/08/23 07:06:29;;;;;;;7.40;4.27;;;16.60;97.30;;;;;;4984816;28;20205;-86
2021/08/23 07:08:55;;;;;;;6.50;4.03;;;16.60;97.30;;;;;;4972891;28;20182;-87
2021/08/23 07:11:21;;;;;;;7.93;4.00;;;16.60;97.30;;;;;;4986770;28;20294;-87
2021/08/23 07:13:46;;;;;;;6.70;3.73;;;16.60;97.30;;;;;;4977291;28;20173;-87
2021/08/23 07:16:12;;;;;;;4.70;3.50;;;16.60;97.30;;;;;;4977284;28;20206;-86
2021/08/23 07:18:37;;;;;;;5.27;3.50;;;16.60;97.30;;;;;;4977075;28;20173;-87
2021/08/23 07:21:03;;;;;;;4.60;3.30;;;16.60;97.30;;;;;;4978781;28;20189;-85
2021/08/23 07:23:29;;;;;;;4.60;3.50;;;16.60;97.30;;;;;;4994848;28;20648;-87
2021/08/23 07:25:55;;;;;;;6.77;3.80;;;16.70;97.30;;;;;;4977555;28;20520;-87
2021/08/23 07:28:20;;;;;;;4.70;3.53;;;16.70;97.30;;;;;;4987111;28;20657;-86
2021/08/23 07:30:46;;;;;;;3.13;2.93;;;16.70;97.30;;;;;;4973797;28;20209;-85
2021/08/23 07:33:12;;;;;;;4.97;2.90;;;16.70;97.30;;;;;;4974356;28;20190;-86
2021/08/23 07:35:37;;;;;;;4.60;2.83;;;16.70;97.30;;;;;;4974978;28;20200;-85
2021/08/23 07:38:03;;;;;;;6.97;2.80;;;16.70;97.30;;;;;;4978547;28;20567;-86
2021/08/23 07:40:29;;;;;;;3.73;3.03;;;16.70;97.30;;;;;;4973859;28;20399;-85
2021/08/23 07:42:54;;;;;;;5.00;2.77;;;16.70;97.30;;;;;;4956668;28;20418;-85
2021/08/23 07:45:21;;;;;;;3.77;2.90;;;16.70;97.30;;;;;;4994625;28;20201;-86
2021/08/23 07:47:46;;;;;;;5.07;3.20;;;16.70;97.30;;;;;;4986821;28;20185;-86
2021/08/23 07:50:13;;;;;;;4.50;3.00;;;16.70;97.30;;;;;;4979990;28;20976;-86
2021/08/23 07:52:39;;;;;;;4.00;2.73;;;16.80;97.30;;;;;;5005606;28;20427;-88
2021/08/23 07:55:07;;;;;;;2.93;2.80;;;16.80;97.30;;;;;;4994877;28;20437;-87
2021/08/23 07:57:32;;;;;;;2.87;2.40;;;16.80;97.30;;;;;;4995191;28;20182;-86
2021/08/23 07:59:58;;;;;;;2.80;2.40;;;16.80;97.30;;;;;;4977153;28;20597;-86
2021/08/23 08:02:23;;;;;;;7.70;2.40;;;16.80;97.30;;;;;;4979600;28;20189;-86
2021/08/23 08:04:50;;;;;;;3.10;2.30;;;16.80;97.30;;;;;;4986810;28;20197;-88
2021/08/23 08:07:16;;;;;;;2.27;1.90;;;16.90;97.30;;;;;;4978007;28;20473;-86
2021/08/23 08:09:41;;;;;;;3.10;1.63;;;16.80;97.30;;;;;;4978350;28;20516;-87
2021/08/23 08:12:07;;;;;;;2.13;2.03;;;16.90;97.30;;;;;;4978167;28;20480;-87
2021/08/23 08:14:32;;;;;;;2.70;2.00;;;16.80;97.30;;;;;;4977500;28;20174;-86
2021/08/23 08:16:58;;;;;;;1.73;1.63;;;16.80;97.30;;;;;;4942727;28;1020718;-87
2021/08/23 08:19:25;;;;;;;1.20;1.20;;;16.90;97.30;;;;;;4978158;28;20178;-87
2021/08/23 08:21:50;;;;;;;2.03;1.37;;;16.90;97.30;;;;;;4977946;28;20554;-86
2021/08/23 08:24:16;;;;;;;1.90;1.60;;;16.80;97.30;;;;;;4977059;28;20429;-84
2021/08/23 08:26:41;;;;;;;1.23;1.20;;;16.80;97.30;;;;;;4977633;28;20570;-86
2021/08/23 08:29:07;;;;;;;1.50;1.40;;;16.90;97.30;;;;;;4977605;28;20417;-85
2021/08/23 08:31:32;;;;;;;1.67;1.57;;;16.90;97.30;;;;;;4999503;28;20687;-85
2021/08/23 08:33:58;;;;;;;1.97;1.53;;;16.90;97.30;;;;;;4979451;28;20197;-85
2021/08/23 08:36:24;;;;;;;2.03;1.40;;;16.90;97.30;;;;;;4993941;28;20201;-86
2021/08/23 08:38:50;;;;;;;1.70;1.60;;;16.80;97.30;;;;;;5015271;28;20178;-86
2021/08/23 08:41:16;;;;;;;1.47;1.37;;;16.80;97.30;;;;;;4995649;28;20820;-86
2021/08/23 08:43:42;;;;;;;1.80;1.60;;;16.80;97.30;;;;;;4973299;28;20237;-86
2021/08/23 08:46:07;;;;;;;1.43;1.33;;;16.80;97.30;;;;;;4973281;28;20478;-87
2021/08/23 08:48:34;;;;;;;1.63;1.53;;;16.80;97.30;;;;;;4982512;28;20185;-87
2021/08/23 08:51:00;;;;;;;1.40;1.30;;;16.80;97.30;;;;;;4975694;28;20637;-86
2021/08/23 08:53:25;;;;;;;1.37;1.27;;;16.80;97.30;;;;;;4993681;28;20471;-87
2021/08/23 08:55:51;;;;;;;1.70;1.60;;;16.80;97.30;;;;;;5001063;28;20490;-86
2021/08/23 08:58:22;;;;;;;4.50;1.90;;;16.80;97.30;;;;;;5012986;28;20206;-84
2021/08/23 09:00:48;;;;;;;2.17;1.80;;;16.80;97.30;;;;;;4988333;28;20185;-84
2021/08/23 09:03:27;;;;;;;2.43;1.90;;;16.80;97.30;;;;;;4986690;28;20860;-83
2021/08/23 09:06:03;;;;;;;1.50;1.43;;;16.90;97.30;;;;;;4992253;28;20208;-85
2021/08/23 09:08:29;;;;;;;2.80;1.40;;;16.80;97.30;;;;;;4992498;28;20503;-85
2021/08/23 09:11:21;;;;;;;2.13;1.60;;;16.80;97.30;;;;;;4993999;28;20996;-86
2021/08/23 09:13:59;;;;;;;1.53;1.40;;;16.80;97.30;;;;;;4971956;28;20421;-85
2021/08/23 09:16:29;;;;;;;1.47;1.37;;;16.80;97.30;;;;;;4969319;28;20468;-86
2021/08/23 09:18:55;;;;;;;1.93;1.63;;;16.80;97.30;;;;;;4975998;28;20856;-85
2021/08/23 09:21:31;;;;;;;4.33;1.60;;;16.80;97.30;;;;;;4976549;28;20451;-85
2021/08/23 09:23:58;;;;;;;3.33;1.90;;;16.80;97.30;;;;;;4977345;28;20839;-85
2021/08/23 09:26:31;;;;;;;2.30;1.70;;;16.70;97.30;;;;;;4974021;28;20453;-86
2021/08/23 09:29:00;;;;;;;2.10;1.97;;;16.60;97.30;;;;;;4976450;28;20453;-86
2021/08/23 09:31:30;;;;;;;4.17;2.13;;;16.60;97.30;;;;;;4993516;28;20541;-85
2021/08/23 09:33:59;;;;;;;2.23;2.03;;;16.50;97.30;;;;;;4976003;28;20611;-85
2021/08/23 09:36:25;;;;;;;2.40;2.30;;;16.50;97.30;;;;;;4995004;28;20453;-85
2021/08/23 09:39:06;;;;;;;3.20;2.43;;;16.50;97.30;;;;;;4993679;28;20435;-84
2021/08/23 09:41:33;;;;;;;4.20;2.67;;;16.40;97.30;;;;;;4989916;28;20188;-85
2021/08/23 09:44:13;;;;;;;4.37;2.90;;;16.40;97.30;;;;;;4996854;28;20451;-84
2021/08/23 09:46:40;;;;;;;3.80;3.20;;;16.40;97.30;;;;;;4996520;28;20444;-86
2021/08/23 09:49:08;;;;;;;4.23;3.13;;;16.40;97.30;;;;;;4985727;28;20465;-85
2021/08/23 09:51:40;;;;;;;3.50;2.70;;;16.40;97.30;;;;;;4994976;28;20543;-84
2021/08/23 09:54:09;;;;;;;4.30;3.07;;;16.30;97.30;;;;;;4976392;28;20425;-84
2021/08/23 09:56:39;;;;;;;2.60;2.30;;;16.30;97.30;;;;;;4983391;28;20510;-84
2021/08/23 09:59:05;;;;;;;3.13;2.93;;;16.20;97.30;;;;;;4976183;28;20417;-85
2021/08/23 10:01:35;;;;;;;4.40;2.40;;;16.20;97.30;;;;;;5002534;28;20443;-85
2021/08/23 10:04:06;;;;;;;4.33;2.77;;;16.20;97.30;;;;;;4987296;28;20463;-85
2021/08/23 10:06:37;;;;;;;2.73;2.47;;;16.20;97.30;;;;;;4994555;28;20443;-85
2021/08/23 10:09:05;;;;;;;2.80;2.60;;;16.10;97.30;;;;;;4990528;28;21001;-85
2021/08/23 10:11:36;;;;;;;2.90;2.40;;;16.20;97.30;;;;;;4975541;28;21051;-85
2021/08/23 10:14:03;;;;;;;3.23;2.43;;;16.10;97.30;;;;;;4987018;28;20424;-84
2021/08/23 10:16:29;;;;;;;3.40;2.60;;;16.10;97.30;;;;;;4995064;28;20522;-84
2021/08/23 10:18:56;;;;;;;3.40;2.60;;;16.00;97.30;;;;;;4979904;28;20421;-88
2021/08/23 10:21:22;;;;;;;5.57;2.83;;;16.00;97.30;;;;;;4987974;28;20852;-84
2021/08/23 10:23:50;;;;;;;3.97;2.63;;;16.00;97.30;;;;;;5002660;28;20512;-84
2021/08/23 10:26:16;;;;;;;4.70;2.50;;;16.00;97.30;;;;;;4991980;28;20452;-84
2021/08/23 10:28:42;;;;;;;6.50;3.47;;;16.00;97.30;;;;;;4995126;28;20852;-84
2021/08/23 10:31:09;;;;;;;4.57;3.20;;;16.00;97.30;;;;;;4985062;28;20522;-86
2021/08/23 10:33:42;;;;;;;5.23;3.27;;;16.00;97.30;;;;;;4975522;28;20176;-86
2021/08/23 10:36:11;;;;;;;3.77;2.93;;;16.00;97.30;;;;;;4976524;28;20986;-85
2021/08/23 10:38:37;;;;;;;3.90;3.23;;;16.00;97.30;;;;;;4975582;28;20417;-84
2021/08/23 10:41:11;;;;;;;3.60;2.97;;;16.10;97.30;;;;;;4993275;28;21076;-84
2021/08/23 10:43:52;;;;;;;4.27;3.17;;;16.10;97.30;;;;;;4985489;28;20287;-86
2021/08/23 10:46:23;;;;;;;5.37;3.40;;;16.20;97.30;;;;;;4977862;28;21032;-86
2021/08/23 10:48:50;;;;;;;4.53;3.03;;;16.20;97.30;;;;;;4994556;28;21094;-85
2021/08/23 10:51:30;;;;;;;4.40;3.43;;;16.20;97.30;;;;;;4995278;28;20448;-86
2021/08/23 10:53:56;;;;;;;4.60;3.20;;;16.10;97.30;;;;;;4990994;28;20862;-86
2021/08/23 10:56:22;;;;;;;3.20;2.80;;;16.10;97.30;;;;;;4979166;28;20524;-86
2021/08/23 10:58:48;;;;;;;3.30;2.90;;;16.10;97.30;;;;;;4974963;28;20170;-86
2021/08/23 11:01:22;;;;;;;4.33;3.13;;;16.00;97.30;;;;;;4987452;28;20181;-85
2021/08/23 11:04:08;;;;;;;4.10;3.10;;;16.00;97.30;;;;;;4983564;28;20809;-86
2021/08/23 11:06:34;;;;;;;3.77;3.37;;;16.10;97.30;;;;;;4974798;28;20463;-85
2021/08/23 11:09:12;;;;;;;6.70;3.47;;;16.10;97.30;;;;;;4975152;28;20425;-86
2021/08/23 11:11:39;;;;;;;3.50;3.00;;;16.10;97.30;;;;;;4992855;28;20455;-86
2021/08/23 11:14:21;;;;;;;3.57;3.23;;;16.10;97.30;;;;;;4988447;28;20424;-85
2021/08/23 11:16:51;;;;;;;10.80;3.60;;;16.10;97.30;;;;;;4992817;28;20472;-86
2021/08/23 11:19:20;;;;;;;4.00;3.13;;;16.10;97.30;;;;;;4994267;28;20428;-85
2021/08/23 11:21:47;;;;;;;5.07;3.50;;;16.10;97.30;;;;;;4979473;28;20443;-86
2021/08/23 11:24:17;;;;;;;6.60;3.53;;;16.10;97.30;;;;;;4969388;28;20430;-86
2021/08/23 11:26:53;;;;;;;4.73;3.27;;;16.10;97.30;;;;;;4987651;28;20995;-84
2021/08/23 11:29:19;;;;;;;6.37;3.80;;;16.10;97.30;;;;;;4991517;28;20428;-86
2021/08/23 11:31:55;;;;;;;4.60;3.70;;;16.10;97.30;;;;;;4994091;28;20464;-86
2021/08/23 11:34:24;;;;;;;4.50;3.43;;;16.00;97.30;;;;;;4987216;28;20171;-85
2021/08/23 11:36:50;;;;;;;4.50;3.30;;;15.90;97.30;;;;;;4987070;28;20449;-86
2021/08/23 11:39:15;;;;;;;4.50;3.20;;;15.80;97.30;;;;;;4984897;28;20965;-85
2021/08/23 11:41:41;;;;;;;3.67;3.47;;;15.80;97.30;;;;;;4985196;28;20654;-85
2021/08/23 11:44:06;;;;;;;4.90;3.57;;;15.70;97.30;;;;;;4979586;28;20186;-85
2021/08/23 11:46:32;;;;;;;5.27;3.90;;;15.70;97.30;;;;;;4974199;28;20715;-86
2021/08/23 11:48:57;;;;;;;5.03;3.37;;;15.70;97.30;;;;;;4973450;28;20269;-85
2021/08/23 11:51:29;;;;;;;5.13;3.53;;;15.70;97.30;;;;;;5004218;28;20209;-85
2021/08/23 11:53:54;;;;;;;4.77;3.00;;;15.70;97.30;;;;;;5008119;28;20178;-85
2021/08/23 11:56:20;;;;;;;4.23;3.03;;;15.70;97.30;;;;;;4976445;28;20450;-85
2021/08/23 11:58:45;;;;;;;4.80;3.50;;;15.70;97.30;;;;;;4974921;28;20660;-85
2021/08/23 12:01:14;;;;;;;4.70;3.30;;;15.70;97.30;;;;;;4989880;28;20232;-85
2021/08/23 12:03:40;;;;;;;3.23;3.03;;;15.70;97.30;;;;;;4994020;28;20186;-86
2021/08/23 12:06:08;;;;;;;4.60;3.40;;;15.60;97.30;;;;;;4979162;28;21000;-86
2021/08/23 12:08:36;;;;;;;6.20;3.50;;;15.70;97.30;;;;;;4978195;28;20285;-86
2021/08/23 12:11:14;;;;;;;3.57;3.17;;;15.70;97.30;;;;;;4981839;28;20465;-86
2021/08/23 12:13:50;;;;;;;4.70;3.30;;;15.70;97.30;;;;;;4976691;28;20564;-86
2021/08/23 12:16:19;;;;;;;4.07;3.30;;;15.70;97.30;;;;;;4966498;28;20532;-86
2021/08/23 12:18:50;;;;;;;3.90;2.70;;;15.70;97.30;;;;;;4976903;28;20429;-86
2021/08/23 12:21:26;;;;;;;4.03;2.70;;;15.60;97.30;;;;;;4972824;28;20473;-85
2021/08/23 12:23:57;;;;;;;5.70;3.50;;;15.60;97.30;;;;;;4974912;28;20897;-86
2021/08/23 12:26:35;;;;;;;6.77;3.87;;;15.60;97.30;;;;;;4970631;28;20465;-85
2021/08/23 12:29:14;;;;;;;5.43;4.00;;;15.60;97.30;;;;;;4979658;28;20429;-86
2021/08/23 12:31:54;;;;;;;7.00;4.23;;;15.50;97.30;;;;;;4982148;28;20570;-86
2021/08/23 12:34:33;;;;;;;5.00;3.93;;;15.50;97.30;;;;;;4977991;28;20425;-86
2021/08/23 12:37:00;;;;;;;6.90;3.37;;;15.50;97.30;;;;;;4977193;28;20541;-86
2021/08/23 12:39:26;;;;;;;4.50;3.17;;;15.50;97.30;;;;;;4977052;28;20860;-86
2021/08/23 12:41:54;;;;;;;4.07;2.90;;;15.40;97.30;;;;;;4977057;28;21102;-86
2021/08/23 12:44:20;;;;;;;5.73;3.67;;;15.30;97.30;;;;;;4993563;28;20787;-85